Time;durP1;ratioP1;P1;durP2;ratioP2;P2;SDS_P1;SDS_P2;PMS_P1;PMS_P2;Temp;Humidity;BMP_temperature;BMP_pressure;BME280_temperature;BME280_humidity;BME280_pressure;Samples;Min_cycle;Max_cycle;Signal;HPM_P1;HPM_P2
2022/02/11 00:07:58;;;;;;;54.33;15.50;;;;;;;0.78;97.02;97754.94;5076923;28;20409;-62
2022/02/11 00:10:26;;;;;;;59.45;15.93;;;;;;;0.71;96.59;97747.09;5086204;28;20157;-58
2022/02/11 00:12:54;;;;;;;69.72;19.50;;;;;;;0.68;96.34;97747.69;5087871;28;20052;-62
2022/02/11 00:17:54;;;;;;;34.55;12.95;;;;;;;0.63;97.31;97747.75;5087516;28;20048;-57
2022/02/11 00:20:22;;;;;;;29.20;11.77;;;;;;;0.63;96.21;97747.75;5087333;28;20063;-57
2022/02/11 00:22:50;;;;;;;30.80;12.77;;;;;;;0.59;96.08;97746.72;5085634;28;20521;-55
2022/02/11 00:25:17;;;;;;;25.70;11.25;;;;;;;-0.09;95.63;97639.00;5085450;28;20048;-62
2022/02/11 00:30:42;;;;;;;23.98;10.30;;;;;;;0.56;96.40;97733.66;5086821;28;20048;-59
2022/02/11 00:33:20;;;;;;;22.25;9.45;;;;;;;0.47;96.00;97732.69;5086865;28;20048;-55
2022/02/11 00:36:08;;;;;;;29.27;11.52;;;;;;;0.03;97.03;97670.19;5085582;28;20065;-62
2022/02/11 01:03:17;;;;;;;25.63;8.68;;;;;;;-0.07;100.00;97655.88;5106524;28;20043;-56
2022/02/11 01:05:45;;;;;;;18.15;6.97;;;;;;;0.13;100.00;97707.41;5106923;28;20505;-55
2022/02/11 01:08:13;;;;;;;17.55;6.80;;;;;;;0.29;100.00;97727.94;5106795;28;20052;-62
2022/02/11 01:10:39;;;;;;;20.05;7.50;;;;;;;0.31;100.00;97714.03;5106865;28;20321;-56
2022/02/11 01:13:06;;;;;;;22.88;7.75;;;;;;;0.36;100.00;97733.88;5105240;28;20047;-58
2022/02/11 01:15:36;;;;;;;25.38;8.93;;;;;;;0.43;100.00;97707.09;5106477;27;20560;-62
2022/02/11 01:18:05;;;;;;;29.92;10.13;;;;;;;0.50;99.86;97718.47;5106327;28;20441;-56
2022/02/11 01:23:34;;;;;;;27.48;10.18;;;;;;;0.26;99.82;97703.19;5106660;28;20047;-61
2022/02/11 01:34:03;;;;;;;14.93;6.53;;;;;;;0.46;98.98;97703.78;5106036;28;20048;-56
2022/02/11 01:45:03;;;;;;;23.17;9.70;;;;;;;-0.01;100.00;97649.28;5106240;28;20838;-61
2022/02/11 02:36:17;;;;;;;29.85;12.20;;;;;;;-0.52;98.13;97593.72;5064767;28;20052;-56
2022/02/11 02:57:43;;;;;;;43.58;16.60;;;;;;;-0.95;97.96;97526.66;5064830;28;20421;-63
2022/02/11 03:00:35;;;;;;;40.63;16.95;;;;;;;-0.54;98.05;97604.06;5064315;28;20044;-56
2022/02/11 05:00:11;;;;;;;43.65;19.00;;;;;;;-0.79;100.00;97583.31;5049886;28;20048;-55
2022/02/11 05:02:38;;;;;;;53.28;20.50;;;;;;;-0.26;100.00;97671.28;5066772;28;20052;-56
2022/02/11 05:05:08;;;;;;;36.92;15.63;;;;;;;-0.24;100.00;97666.38;5064926;28;20075;-62
2022/02/11 05:07:36;;;;;;;22.38;9.68;;;;;;;-0.12;100.00;97675.81;5066552;28;20055;-63
2022/02/11 05:10:05;;;;;;;26.42;10.95;;;;;;;-0.17;99.86;97680.47;5064786;28;20090;-62
2022/02/11 05:12:32;;;;;;;31.52;13.43;;;;;;;-0.10;99.34;97678.22;5066506;28;20048;-56
2022/02/11 05:14:58;;;;;;;33.65;13.88;;;;;;;-0.35;99.61;97651.25;5065924;28;20502;-56
2022/02/11 05:17:25;;;;;;;38.65;16.63;;;;;;;-0.39;99.83;97650.19;5066260;28;20459;-63
2022/02/11 05:19:52;;;;;;;35.97;14.32;;;;;;;-0.51;100.00;97630.72;5065705;28;20329;-63
2022/02/11 05:22:19;;;;;;;42.03;18.05;;;;;;;-0.61;100.00;97603.56;5065357;28;20044;-57
2022/02/11 05:24:45;;;;;;;55.83;21.92;;;;;;;-1.24;100.00;97509.50;5066376;28;20051;-55
2022/02/11 05:27:12;;;;;;;55.80;21.75;;;;;;;-0.16;100.00;97676.66;5066371;28;20048;-62
2022/02/11 05:29:38;;;;;;;85.22;31.05;;;;;;;-0.18;99.91;97670.69;5066100;28;20056;-57
2022/02/11 05:32:07;;;;;;;99.18;40.83;;;;;;;-0.21;100.00;97663.91;5064503;28;20101;-63
2022/02/11 05:34:34;;;;;;;86.10;35.40;;;;;;;-0.21;99.96;97663.09;5065423;28;20060;-56
2022/02/11 05:37:00;;;;;;;74.32;33.72;;;;;;;-0.18;100.00;97667.97;5065709;28;20494;-63
2022/02/11 05:39:27;;;;;;;74.43;33.53;;;;;;;-0.15;98.47;97668.22;5065681;28;20052;-63
2022/02/11 05:41:54;;;;;;;73.10;32.17;;;;;;;-0.22;96.52;97651.38;5064055;28;20048;-62
2022/02/11 05:44:20;;;;;;;81.80;34.97;;;;;;;-0.06;96.49;97665.66;5064584;28;20056;-63
2022/02/11 05:46:47;;;;;;;69.53;29.30;;;;;;;-0.04;96.87;97671.63;5065920;28;20064;-56
2022/02/11 05:49:14;;;;;;;60.03;25.88;;;;;;;-0.03;97.31;97670.53;5065383;28;20442;-55
2022/02/11 05:51:40;;;;;;;61.53;25.10;;;;;;;-0.09;98.30;97647.19;5065581;28;20062;-55
2022/02/11 05:54:07;;;;;;;126.60;51.35;;;;;;;0.13;97.52;97674.72;5065329;28;20051;-56
2022/02/11 05:56:34;;;;;;;171.00;76.85;;;;;;;0.24;97.31;97683.63;5063863;28;20057;-67
2022/02/11 05:59:02;;;;;;;119.22;49.22;;;;;;;0.21;98.59;97671.38;5064463;28;20052;-55
2022/02/11 06:01:29;;;;;;;103.50;36.83;;;;;;;0.04;98.54;97616.56;5064940;28;20215;-62
2022/02/11 06:03:56;;;;;;;68.60;24.27;;;;;;;0.04;98.08;97605.66;5065432;28;20419;-56
2022/02/11 06:06:24;;;;;;;55.55;22.48;;;;;;;0.66;98.04;97673.59;5064711;28;20518;-61
2022/02/11 06:08:50;;;;;;;41.13;17.45;;;;;;;0.72;97.18;97666.97;5065240;28;20048;-59
2022/02/11 06:11:19;;;;;;;48.17;18.20;;;;;;;0.75;97.64;97652.75;5064784;28;20056;-61
2022/02/11 06:13:46;;;;;;;71.28;25.48;;;;;;;1.06;97.65;97666.78;5064630;28;20730;-57
2022/02/11 06:16:13;;;;;;;89.57;33.47;;;;;;;1.19;96.96;97672.31;5063295;28;20135;-56
2022/02/11 06:18:40;;;;;;;92.50;39.58;;;;;;;0.98;95.42;97627.31;5064798;28;20053;-61
2022/02/11 06:21:06;;;;;;;89.32;36.50;;;;;;;1.43;94.78;97662.13;5065297;28;20614;-61
2022/02/11 06:23:33;;;;;;;80.18;36.05;;;;;;;1.64;93.65;97673.53;5064994;28;20052;-62
2022/02/11 06:26:00;;;;;;;75.28;33.92;;;;;;;1.79;93.01;97675.22;5064830;28;20055;-56
2022/02/11 06:28:27;;;;;;;67.30;28.52;;;;;;;2.03;92.45;97675.88;5064304;28;20502;-62
2022/02/11 06:31:01;;;;;;;43.05;17.10;;;;;;;2.14;90.10;97671.84;4031643;28;10021630;-56
2022/02/11 06:33:27;;;;;;;53.67;21.95;;;;;;;2.26;90.93;97674.91;3401956;28;10002001;-60
2022/02/11 06:35:54;;;;;;;41.20;17.77;;;;;;;2.43;89.86;97681.41;5057851;28;20053;-55
2022/02/11 06:38:21;;;;;;;90.53;36.63;;;;;;;2.50;88.81;97681.00;5044496;28;20060;-61
2022/02/11 06:40:47;;;;;;;105.00;41.63;;;;;;;2.65;87.62;97672.50;5042921;28;20053;-61
2022/02/11 06:43:14;;;;;;;98.93;38.50;;;;;;;2.75;87.76;97677.78;5042992;28;20075;-62
2022/02/11 06:45:41;;;;;;;100.05;38.90;;;;;;;2.97;88.39;97680.59;5042833;28;20469;-62
2022/02/11 06:48:08;;;;;;;85.30;38.53;;;;;;;3.00;85.84;97663.56;5043530;28;20431;-62
2022/02/11 06:50:35;;;;;;;85.60;38.67;;;;;;;3.26;84.95;97666.56;5037831;28;20053;-57
2022/02/11 06:53:01;;;;;;;88.05;37.40;;;;;;;3.45;84.36;97681.69;5045010;28;20450;-55
2022/02/11 06:55:28;;;;;;;76.95;33.45;;;;;;;3.31;81.73;97617.97;5058895;28;20060;-68
2022/02/11 06:57:55;;;;;;;66.90;28.88;;;;;;;2.59;82.29;97504.97;5068252;28;20049;-56
2022/02/11 07:00:21;;;;;;;61.00;26.50;;;;;;;3.79;82.51;97681.19;5043312;28;20041;-54
2022/02/11 07:02:49;;;;;;;57.70;24.63;;;;;;;3.64;83.33;97651.41;5044421;28;20165;-56
2022/02/11 07:05:17;;;;;;;45.25;22.90;;;;;;;3.97;81.58;97672.75;5042287;28;20053;-70
2022/02/11 07:07:44;;;;;;;50.08;21.48;;;;;;;4.19;81.71;97672.72;5042012;28;20052;-55
2022/02/11 07:10:11;;;;;;;49.80;21.83;;;;;;;4.24;80.71;97656.16;5054700;28;20055;-68
2022/02/11 07:12:38;;;;;;;46.92;22.25;;;;;;;3.91;82.69;97663.03;5043146;28;20887;-58
2022/02/11 07:15:05;;;;;;;46.50;22.50;;;;;;;3.67;84.25;97646.09;5038428;28;20049;-67
2022/02/11 07:17:33;;;;;;;49.17;21.38;;;;;;;3.72;85.42;97654.22;5025913;28;20068;-65
2022/02/11 07:20:00;;;;;;;42.17;21.83;;;;;;;3.78;85.86;97668.59;5042323;28;20534;-66
2022/02/11 07:22:34;;;;;;;46.95;19.80;;;;;;;4.11;84.52;97667.22;5057304;28;20091;-56
2022/02/11 07:25:03;;;;;;;40.20;17.70;;;;;;;3.61;83.80;97554.22;5042525;28;20438;-56
2022/02/11 07:27:29;;;;;;;41.80;19.52;;;;;;;4.43;83.66;97637.53;5043609;28;20049;-56
2022/02/11 07:30:17;;;;;;;35.78;17.52;;;;;;;4.39;81.36;97592.66;5042128;28;20507;-56
2022/02/11 07:32:44;;;;;;;35.67;16.27;;;;;;;4.98;80.34;97657.06;5043230;28;20060;-62
2022/02/11 07:35:10;;;;;;;33.05;16.88;;;;;;;4.76;80.46;97637.19;5042935;28;20056;-61
2022/02/11 07:37:37;;;;;;;30.88;16.20;;;;;;;4.78;79.54;97594.56;5058292;28;20056;-61
2022/02/11 07:40:05;;;;;;;36.72;15.98;;;;;;;5.36;79.10;97651.84;5041344;28;20438;-58
2022/02/11 07:42:36;;;;;;;29.42;15.65;;;;;;;4.98;77.50;97543.75;5042268;28;20055;-58
2022/02/11 07:45:02;;;;;;;37.50;16.88;;;;;;;5.70;77.34;97622.41;5036487;28;20098;-58
2022/02/11 07:47:29;;;;;;;27.67;14.13;;;;;;;5.92;76.02;97646.19;5042080;28;20049;-64
2022/02/11 07:49:56;;;;;;;23.40;12.13;;;;;;;5.69;76.00;97587.00;5042115;28;20060;-60
2022/02/11 07:52:23;;;;;;;35.28;15.98;;;;;;;6.41;74.32;97636.50;5042167;28;20052;-59
2022/02/11 07:54:50;;;;;;;37.10;17.77;;;;;;;6.64;74.42;97641.44;5041010;28;20061;-66
2022/02/11 07:57:17;;;;;;;35.17;16.35;;;;;;;6.69;74.55;97638.50;5042667;28;20061;-58
2022/02/11 07:59:44;;;;;;;33.92;15.43;;;;;;;5.99;73.89;97498.81;5042299;28;20537;-63
2022/02/11 08:02:11;;;;;;;37.13;19.08;;;;;;;6.98;74.35;97630.28;5040518;28;20067;-57
2022/02/11 08:04:38;;;;;;;34.78;16.67;;;;;;;7.21;73.86;97637.09;5042398;28;20057;-58
2022/02/11 08:07:05;;;;;;;32.67;15.82;;;;;;;7.40;72.30;97615.41;5042115;28;20049;-65
2022/02/11 08:09:31;;;;;;;27.55;14.80;;;;;;;6.66;72.80;97556.59;5041704;28;20613;-59
2022/02/11 08:11:58;;;;;;;24.80;12.15;;;;;;;7.47;71.55;97629.47;5042638;28;20044;-68
2022/02/11 08:14:25;;;;;;;28.52;14.68;;;;;;;7.46;71.79;97619.56;5042093;28;20135;-60
2022/02/11 08:16:52;;;;;;;20.35;11.32;;;;;;;7.50;71.65;97636.25;5042130;28;20462;-57
2022/02/11 08:19:19;;;;;;;27.92;14.00;;;;;;;7.09;71.88;97526.00;5042342;28;20542;-67
2022/02/11 08:21:46;;;;;;;26.27;15.48;;;;;;;7.99;70.68;97626.25;5042519;28;20051;-66
2022/02/11 08:24:14;;;;;;;28.48;13.70;;;;;;;8.31;69.67;97622.69;5041864;28;20049;-63
2022/02/11 08:26:41;;;;;;;25.40;13.02;;;;;;;8.53;68.46;97614.00;5036924;28;20057;-66
2022/02/11 08:29:09;;;;;;;22.83;11.45;;;;;;;8.67;67.76;97615.28;5043601;28;20049;-63
2022/02/11 08:31:36;;;;;;;19.20;9.65;;;;;;;8.83;67.05;97602.41;5043794;28;20063;-64
2022/02/11 08:34:03;;;;;;;16.83;10.00;;;;;;;8.44;65.30;97505.63;5045562;28;20057;-64
2022/02/11 08:36:29;;;;;;;17.40;8.73;;;;;;;9.20;64.54;97601.22;5045081;28;20535;-59
2022/02/11 08:38:57;;;;;;;19.80;10.88;;;;;;;9.50;64.66;97603.69;5046991;28;20079;-61
2022/02/11 08:41:24;;;;;;;22.65;11.38;;;;;;;9.43;63.77;97576.63;5046586;28;20542;-61
2022/02/11 08:43:51;;;;;;;26.95;12.48;;;;;;;9.74;63.07;97593.34;5046212;28;20063;-62
2022/02/11 08:46:21;;;;;;;26.60;12.80;;;;;;;9.97;61.85;97591.66;5061486;28;20057;-62
2022/02/11 08:48:48;;;;;;;23.92;12.57;;;;;;;8.72;61.05;97365.69;5073762;28;20049;-60
2022/02/11 08:51:15;;;;;;;21.40;11.02;;;;;;;10.33;61.26;97587.91;5043771;28;20049;-61
2022/02/11 08:53:42;;;;;;;20.02;10.02;;;;;;;10.12;60.34;97552.16;5044059;28;20700;-67
2022/02/11 08:56:09;;;;;;;16.45;9.35;;;;;;;10.47;60.18;97579.97;5045133;28;20049;-58
2022/02/11 08:58:37;;;;;;;15.70;8.82;;;;;;;10.67;59.39;97579.72;5045674;28;20411;-60
2022/02/11 09:01:04;;;;;;;15.77;8.82;;;;;;;10.84;59.12;97597.13;5044816;28;20533;-64
2022/02/11 09:03:32;;;;;;;13.75;7.97;;;;;;;10.86;58.66;97578.19;5045559;28;20057;-60
2022/02/11 09:06:03;;;;;;;15.20;6.72;;;;;;;10.72;58.22;97572.31;5060724;28;20132;-64
2022/02/11 09:08:33;;;;;;;12.77;6.47;;;;;;;10.47;59.33;97569.72;5044958;28;20110;-60
2022/02/11 09:11:03;;;;;;;13.52;7.22;;;;;;;10.86;58.52;97567.88;5045186;28;20052;-68
2022/02/11 09:13:30;;;;;;;12.48;6.85;;;;;;;11.19;58.05;97556.41;5045394;28;20056;-58
2022/02/11 09:15:56;;;;;;;12.60;7.82;;;;;;;11.06;57.22;97543.81;5045483;28;20087;-63
2022/02/11 09:18:23;;;;;;;14.82;7.47;;;;;;;11.28;56.87;97559.78;5060022;28;20064;-61
2022/02/11 09:20:50;;;;;;;104.68;43.35;;;;;;;10.98;57.13;97469.97;5045456;28;20068;-65
2022/02/11 09:23:23;;;;;;;19.45;9.93;;;;;;;11.46;57.07;97527.69;5045405;28;20064;-60
2022/02/11 09:25:51;;;;;;;15.70;7.75;;;;;;;11.73;55.75;97558.03;5044978;28;20064;-59
2022/02/11 09:28:17;;;;;;;13.98;7.30;;;;;;;11.88;56.06;97542.47;5059976;28;20064;-60
2022/02/11 09:30:45;;;;;;;11.85;7.20;;;;;;;11.82;55.75;97522.50;5045123;28;20052;-63
2022/02/11 09:33:13;;;;;;;15.23;5.88;;;;;;;12.03;53.02;97550.69;5045360;28;20055;-63
2022/02/11 09:35:39;;;;;;;12.00;5.80;;;;;;;12.09;52.54;97562.31;5044782;28;20056;-63
2022/02/11 09:38:06;;;;;;;11.27;5.35;;;;;;;12.14;52.38;97550.88;5045202;28;20661;-58
2022/02/11 09:40:44;;;;;;;14.60;5.32;;;;;;;12.32;50.72;97540.91;5045403;28;20044;-59
2022/02/11 09:43:15;;;;;;;9.52;5.13;;;;;;;11.85;50.66;97480.16;5045321;28;20515;-57
2022/02/11 09:45:42;;;;;;;15.45;6.25;;;;;;;12.15;50.10;97492.19;5044893;28;20053;-57
2022/02/11 09:48:08;;;;;;;8.23;4.63;;;;;;;12.26;50.15;97509.06;5043027;28;20522;-63
2022/02/11 09:50:33;;;;;;;9.50;5.25;;;;;;;12.35;50.38;97534.63;5044892;28;20122;-63
2022/02/11 09:53:09;;;;;;;10.75;5.30;;;;;;;12.63;49.95;97531.53;5045456;28;20489;-65
2022/02/11 09:55:40;;;;;;;9.65;4.78;;;;;;;12.39;48.81;97446.59;5043191;28;20128;-66
2022/02/11 09:58:16;;;;;;;8.98;5.32;;;;;;;13.06;49.39;97523.53;5044719;28;20263;-59
2022/02/11 10:00:48;;;;;;;8.43;5.18;;;;;;;13.08;48.26;97518.41;5025363;28;20087;-58
2022/02/11 10:03:20;;;;;;;13.13;5.47;;;;;;;12.87;49.30;97520.81;5027987;28;20041;-59
2022/02/11 10:05:56;;;;;;;11.82;5.30;;;;;;;12.82;49.78;97504.44;5043266;28;20049;-60
2022/02/11 10:08:24;;;;;;;9.23;5.10;;;;;;;13.05;49.69;97513.59;5044001;28;20091;-62
2022/02/11 10:10:54;;;;;;;10.48;5.93;;;;;;;13.18;49.34;97506.59;5046877;28;20126;-61
2022/02/11 10:13:27;;;;;;;9.98;5.40;;;;;;;13.44;49.51;97497.41;5043919;28;20055;-62
2022/02/11 10:15:57;;;;;;;9.90;5.80;;;;;;;13.25;49.32;97500.34;5045944;28;20492;-62
2022/02/11 10:18:31;;;;;;;11.85;6.30;;;;;;;13.22;49.37;97496.34;5044727;28;20059;-61
2022/02/11 10:21:00;;;;;;;11.77;6.07;;;;;;;13.41;48.70;97501.78;5043839;28;20051;-61
2022/02/11 10:23:31;;;;;;;11.13;5.50;;;;;;;13.38;49.28;97488.63;5043813;28;20111;-62
2022/02/11 10:25:58;;;;;;;11.95;6.10;;;;;;;13.48;48.71;97485.16;5046022;28;20051;-58
2022/02/11 10:28:32;;;;;;;7.22;4.97;;;;;;;13.60;47.86;97484.91;5046847;28;20528;-59
2022/02/11 10:31:15;;;;;;;9.43;4.80;;;;;;;13.88;47.16;97480.88;5043172;28;20048;-62
2022/02/11 10:34:05;;;;;;;7.28;4.40;;;;;;;14.18;46.18;97468.44;5044412;28;20063;-62
2022/02/11 10:36:41;;;;;;;8.82;4.45;;;;;;;14.30;45.79;97475.75;5041728;28;20076;-57
2022/02/11 10:39:26;;;;;;;9.00;4.25;;;;;;;13.69;45.43;97371.28;5038342;28;20123;-58
2022/02/11 10:41:57;;;;;;;7.75;4.10;;;;;;;14.54;45.04;97461.25;5037108;28;20045;-62
2022/02/11 10:44:26;;;;;;;6.57;4.57;;;;;;;14.68;44.40;97455.78;5042953;28;20061;-57
2022/02/11 10:47:01;;;;;;;6.03;4.57;;;;;;;14.19;43.87;97410.75;5062178;28;20095;-67
2022/02/11 10:49:32;;;;;;;8.38;3.97;;;;;;;14.83;43.77;97463.03;5063852;28;20060;-61
2022/02/11 10:52:23;;;;;;;6.70;3.92;;;;;;;15.06;43.67;97449.66;5056985;28;20077;-56
2022/02/11 10:54:53;;;;;;;7.75;3.65;;;;;;;15.14;42.70;97445.72;5023744;28;20071;-62
2022/02/11 10:57:28;;;;;;;5.57;3.78;;;;;;;14.57;42.66;97348.94;5036096;28;20053;-56
2022/02/11 10:59:55;;;;;;;8.75;3.50;;;;;;;15.06;42.04;97438.50;5058690;28;20056;-62
2022/02/11 11:02:24;;;;;;;6.47;3.90;;;;;;;15.29;42.74;97436.22;5043283;28;20162;-60
2022/02/11 11:04:54;;;;;;;8.73;4.03;;;;;;;15.54;41.74;97442.75;5043571;28;20074;-60
2022/02/11 11:07:30;;;;;;;7.38;4.43;;;;;;;15.33;42.13;97430.66;5043477;28;20103;-58
2022/02/11 11:10:16;;;;;;;6.15;3.95;;;;;;;15.25;41.32;97424.25;5043400;28;20122;-60
2022/02/11 11:12:54;;;;;;;5.68;3.95;;;;;;;14.60;41.78;97325.88;5042831;28;20395;-60
2022/02/11 11:15:26;;;;;;;6.47;3.58;;;;;;;15.57;41.93;97419.63;5043482;28;20132;-59
2022/02/11 11:17:56;;;;;;;4.47;3.22;;;;;;;15.86;41.32;97426.91;5042456;28;20594;-57
2022/02/11 11:20:26;;;;;;;15.45;4.30;;;;;;;16.05;40.32;97411.75;5041496;28;20063;-57
2022/02/11 11:23:09;;;;;;;8.65;3.85;;;;;;;16.29;41.25;97411.81;5043523;28;20052;-58
2022/02/11 11:26:09;;;;;;;7.13;3.60;;;;;;;16.46;39.66;97411.03;5043294;28;20053;-57
2022/02/11 11:28:45;;;;;;;5.57;3.40;;;;;;;16.35;40.22;97404.59;5043268;28;20057;-60
2022/02/11 11:31:17;;;;;;;4.82;3.13;;;;;;;16.09;39.35;97393.78;5043191;28;20152;-66
2022/02/11 11:33:44;;;;;;;6.07;3.03;;;;;;;16.20;38.91;97379.84;5043394;28;20495;-56
2022/02/11 11:36:13;;;;;;;5.43;2.83;;;;;;;16.33;38.41;97381.84;5043001;28;20514;-61
2022/02/11 11:38:45;;;;;;;3.58;2.75;;;;;;;16.08;37.72;97372.66;5043000;28;20064;-58
2022/02/11 11:41:26;;;;;;;5.70;3.10;;;;;;;15.61;38.09;97258.47;5043339;28;20049;-59
2022/02/11 11:44:01;;;;;;;4.05;2.70;;;;;;;16.17;38.20;97347.88;5042193;28;20085;-56
2022/02/11 11:46:29;;;;;;;7.00;2.33;;;;;;;15.01;36.84;97137.56;5043053;28;20048;-57
2022/02/11 11:49:04;;;;;;;4.65;2.70;;;;;;;16.54;37.15;97362.28;5043506;28;20056;-63
2022/02/11 11:51:52;;;;;;;4.82;2.70;;;;;;;16.70;37.02;97358.25;5057776;28;20138;-58
2022/02/11 11:54:20;;;;;;;4.90;2.55;;;;;;;16.69;36.58;97356.66;5042668;28;20254;-57
2022/02/11 11:56:52;;;;;;;8.02;3.60;;;;;;;16.39;36.90;97343.09;5042885;28;20505;-61
2022/02/11 11:59:21;;;;;;;4.10;2.70;;;;;;;15.91;37.43;97367.84;5058262;28;20064;-55
2022/02/11 12:01:56;;;;;;;5.40;2.95;;;;;;;15.99;37.36;97349.88;5057025;28;20053;-65
2022/02/11 12:04:41;;;;;;;5.03;3.00;;;;;;;16.12;37.59;97339.88;5046798;28;20345;-56
2022/02/11 12:07:08;;;;;;;5.55;2.75;;;;;;;16.14;38.10;97331.91;5047215;28;20486;-65
2022/02/11 12:09:35;;;;;;;5.32;2.53;;;;;;;16.42;36.97;97326.28;5047149;28;20053;-69
2022/02/11 12:12:05;;;;;;;3.63;2.25;;;;;;;16.63;37.42;97330.31;5047581;28;20056;-71
2022/02/11 12:14:42;;;;;;;6.00;2.83;;;;;;;16.66;37.51;97323.91;5046948;28;20061;-60
2022/02/11 12:17:12;;;;;;;5.35;3.13;;;;;;;16.36;37.18;97310.34;5047172;28;20049;-67
2022/02/11 12:19:40;;;;;;;5.25;3.40;;;;;;;16.63;37.91;97330.31;5046137;28;20060;-66
2022/02/11 12:22:08;;;;;;;5.72;3.15;;;;;;;16.68;37.32;97321.50;5044894;28;20362;-59
2022/02/11 12:27:33;;;;;;;6.82;4.15;;;;;;;16.74;38.32;97328.28;5045132;28;20072;-64
2022/02/11 12:30:16;;;;;;;10.15;4.15;;;;;;;16.84;38.32;97313.44;5044705;28;20060;-65
2022/02/11 12:32:45;;;;;;;4.47;3.00;;;;;;;16.66;38.19;97267.97;5044927;28;20053;-74
2022/02/11 12:35:23;;;;;;;6.05;3.50;;;;;;;16.99;37.22;97321.41;5045503;28;20055;-70
2022/02/11 12:37:51;;;;;;;6.15;3.15;;;;;;;16.93;36.57;97311.81;5046326;28;20056;-69
2022/02/11 12:40:22;;;;;;;3.85;2.63;;;;;;;17.05;36.97;97303.00;5045944;28;20159;-69
2022/02/11 12:42:57;;;;;;;2.58;2.22;;;;;;;17.01;36.03;97312.59;5046662;28;20128;-61
2022/02/11 12:45:31;;;;;;;3.47;2.50;;;;;;;16.76;33.32;97279.09;5046100;28;20047;-57
2022/02/11 12:47:57;;;;;;;;;;;;;;;16.68;33.51;97299.13;5046413;28;20431;-59
2022/02/11 12:50:40;;;;;;;2.38;2.00;;;;;;;16.73;33.23;97301.50;5045873;28;19925;-75
2022/02/11 12:53:12;;;;;;;5.35;2.15;;;;;;;14.60;34.24;96957.88;5046520;28;20395;-61
2022/02/11 12:55:39;;;;;;;3.40;2.40;;;;;;;16.73;33.69;97279.09;5045864;28;20545;-60
2022/02/11 12:58:08;;;;;;;2.88;2.58;;;;;;;16.72;34.42;97294.31;5045251;28;20114;-59
2022/02/11 13:00:39;;;;;;;6.63;3.25;;;;;;;16.38;34.64;97224.84;5044923;28;20057;-59
2022/02/11 13:03:11;;;;;;;2.28;1.83;;;;;;;16.51;33.27;97298.75;5040244;28;20049;-60
2022/02/11 13:05:44;;;;;;;4.35;2.05;;;;;;;16.68;33.87;97293.53;5026129;28;20053;-60
2022/02/11 13:08:26;;;;;;;2.38;2.00;;;;;;;16.62;33.28;97293.13;5026184;28;20091;-74
2022/02/11 13:10:58;;;;;;;2.30;1.83;;;;;;;16.69;33.48;97297.91;5026006;28;20496;-57
2022/02/11 13:13:25;;;;;;;4.30;1.92;;;;;;;16.82;33.98;97293.50;5025903;28;20100;-63
2022/02/11 13:15:56;;;;;;;3.47;2.00;;;;;;;16.88;33.61;97308.66;5025201;28;20057;-61
2022/02/11 13:18:26;;;;;;;3.30;1.75;;;;;;;16.57;32.90;97243.19;5024512;28;20103;-58
2022/02/11 13:20:56;;;;;;;2.78;2.45;;;;;;;16.72;32.71;97283.13;5025453;28;20163;-58
2022/02/11 13:23:25;;;;;;;2.55;1.70;;;;;;;16.72;33.59;97266.34;5024840;28;20415;-59
2022/02/11 13:25:55;;;;;;;2.10;1.52;;;;;;;16.20;32.43;97179.38;5026221;28;20436;-62
2022/02/11 13:28:23;;;;;;;1.88;1.30;;;;;;;16.67;32.70;97269.53;5025947;28;20145;-61
2022/02/11 13:30:59;;;;;;;4.22;2.00;;;;;;;16.79;33.30;97283.88;5025624;28;20128;-63
2022/02/11 13:33:31;;;;;;;3.80;2.15;;;;;;;16.40;33.86;97247.63;5025946;28;20053;-57
2022/02/11 13:36:01;;;;;;;3.53;2.03;;;;;;;16.66;34.48;97281.94;5025470;28;20484;-56
2022/02/11 13:38:36;;;;;;;3.28;2.10;;;;;;;16.64;34.89;97280.31;5025530;28;20053;-62
2022/02/11 13:41:09;;;;;;;3.85;2.20;;;;;;;16.26;34.75;97233.69;5025459;28;20068;-57
2022/02/11 13:43:52;;;;;;;2.88;1.80;;;;;;;16.42;35.13;97236.81;5025800;28;20069;-61
2022/02/11 13:46:41;;;;;;;3.38;2.50;;;;;;;16.57;35.15;97271.97;5041444;28;20057;-65
2022/02/11 13:49:11;;;;;;;6.13;3.75;;;;;;;16.64;35.36;97277.53;5045405;28;20096;-57
2022/02/11 13:51:40;;;;;;;5.25;2.67;;;;;;;16.54;35.49;97289.56;5043766;28;20056;-61
2022/02/11 13:54:12;;;;;;;4.63;2.10;;;;;;;15.77;35.50;97179.88;5045192;28;20442;-64
2022/02/11 13:56:50;;;;;;;3.38;2.22;;;;;;;16.35;35.66;97276.00;5042964;28;20093;-56
2022/02/11 13:59:30;;;;;;;2.53;1.98;;;;;;;16.33;35.92;97278.38;5044914;28;20060;-60
2022/02/11 14:02:08;;;;;;;4.03;2.25;;;;;;;16.28;35.31;97278.78;5044692;28;20516;-58
2022/02/11 14:04:35;;;;;;;5.15;2.63;;;;;;;15.70;35.87;97203.00;5026961;28;20136;-57
2022/02/11 14:07:03;;;;;;;2.45;1.92;;;;;;;15.69;35.91;97204.22;5024907;28;20053;-60
2022/02/11 14:09:35;;;;;;;5.15;2.63;;;;;;;16.04;36.39;97279.63;5025072;28;20072;-56
2022/02/11 14:12:06;;;;;;;3.65;2.72;;;;;;;15.92;36.72;97259.66;5023633;28;20136;-56
2022/02/11 14:14:34;;;;;;;4.63;2.63;;;;;;;16.07;37.00;97281.63;5025264;28;20063;-62
2022/02/11 14:17:04;;;;;;;6.63;3.17;;;;;;;15.70;37.20;97210.56;5025948;28;20718;-57
2022/02/11 14:19:31;;;;;;;4.90;2.80;;;;;;;16.08;37.88;97277.63;5044530;28;20080;-58
2022/02/11 14:22:00;;;;;;;4.38;2.53;;;;;;;15.87;37.28;97266.44;5044967;28;20061;-61
2022/02/11 14:24:29;;;;;;;6.45;3.38;;;;;;;16.04;38.21;97282.44;5045161;28;20060;-62
2022/02/11 14:26:56;;;;;;;7.25;2.90;;;;;;;16.11;38.15;97276.81;5042302;28;20124;-61
2022/02/11 14:29:23;;;;;;;6.03;2.75;;;;;;;15.78;37.80;97240.91;5044685;28;20053;-63
2022/02/11 14:31:52;;;;;;;8.45;2.85;;;;;;;16.00;38.27;97281.63;5044675;28;20061;-61
2022/02/11 14:34:19;;;;;;;6.38;2.60;;;;;;;15.98;38.88;97278.41;5045015;28;20060;-59
2022/02/11 14:36:46;;;;;;;8.93;3.95;;;;;;;15.59;39.47;97224.56;5044830;28;20071;-60
2022/02/11 14:39:16;;;;;;;4.25;3.00;;;;;;;15.82;39.32;97280.81;5044816;28;20756;-60
2022/02/11 14:41:48;;;;;;;4.55;3.33;;;;;;;15.75;39.25;97286.41;5044440;28;20055;-60
2022/02/11 14:44:16;;;;;;;5.63;3.22;;;;;;;15.78;39.77;97274.44;5044501;28;20075;-57
2022/02/11 14:46:48;;;;;;;10.07;3.83;;;;;;;15.68;40.04;97280.81;5042753;28;20055;-61
2022/02/11 14:49:19;;;;;;;5.85;2.85;;;;;;;15.65;40.26;97276.00;5042805;28;20074;-57
2022/02/11 14:51:49;;;;;;;4.80;2.60;;;;;;;15.59;40.61;97272.03;5044506;28;20057;-59
2022/02/11 14:54:17;;;;;;;5.25;3.30;;;;;;;15.55;41.20;97276.81;5042766;28;20059;-61
2022/02/11 14:56:45;;;;;;;5.97;3.35;;;;;;;15.37;41.60;97264.78;5042787;28;20442;-62
2022/02/11 14:59:12;;;;;;;5.75;3.30;;;;;;;15.38;41.50;97277.56;5044457;28;20059;-60
2022/02/11 15:01:39;;;;;;;5.38;3.30;;;;;;;15.36;41.76;97279.94;5042727;28;20068;-61
2022/02/11 15:04:07;;;;;;;7.05;3.47;;;;;;;15.30;41.49;97286.31;5043898;28;20053;-58
2022/02/11 15:06:34;;;;;;;6.25;3.30;;;;;;;15.20;41.67;97285.09;5044033;28;20049;-60
2022/02/11 15:09:01;;;;;;;6.15;3.72;;;;;;;15.10;41.74;97272.69;5044360;28;20045;-59
2022/02/11 15:11:29;;;;;;;8.27;3.28;;;;;;;15.04;41.79;97279.06;5044029;28;20057;-60
2022/02/11 15:13:55;;;;;;;5.55;3.00;;;;;;;14.43;42.07;97226.22;5043779;28;20049;-58
2022/02/11 15:16:22;;;;;;;4.40;2.72;;;;;;;14.78;42.46;97282.13;5044110;28;20049;-56
2022/02/11 15:18:49;;;;;;;6.50;3.20;;;;;;;14.52;42.70;97268.47;5043601;28;20063;-57
2022/02/11 15:21:19;;;;;;;8.98;2.95;;;;;;;14.53;43.77;97286.78;5041982;28;20049;-60
2022/02/11 15:23:46;;;;;;;8.25;3.35;;;;;;;13.90;43.66;97219.50;5043816;28;20053;-57
2022/02/11 15:26:15;;;;;;;5.65;3.25;;;;;;;14.16;44.38;97284.16;5044279;28;20052;-57
2022/02/11 15:28:42;;;;;;;10.60;5.72;;;;;;;14.06;44.11;97284.88;5044148;28;20045;-58
2022/02/11 15:31:15;;;;;;;13.35;6.55;;;;;;;13.90;43.75;97292.69;5043634;28;20103;-61
2022/02/11 15:33:43;;;;;;;15.48;7.30;;;;;;;13.75;43.93;97296.56;5043695;28;20048;-60
2022/02/11 15:36:11;;;;;;;18.73;8.40;;;;;;;13.60;43.63;97312.34;5043708;28;20067;-61
2022/02/11 15:38:39;;;;;;;21.02;11.93;;;;;;;13.18;43.82;97253.47;5042846;28;20052;-60
2022/02/11 15:41:08;;;;;;;48.17;21.42;;;;;;;13.24;45.58;97304.81;5042040;28;20183;-60
2022/02/11 15:43:39;;;;;;;46.95;21.48;;;;;;;12.53;46.30;97232.06;5042344;28;20041;-60